Time;durP1;ratioP1;P1;durP2;ratioP2;P2;SDS_P1;SDS_P2;PMS_P1;PMS_P2;Temp;Humidity;BMP_temperature;BMP_pressure;BME280_temperature;BME280_humidity;BME280_pressure;Samples;Min_cycle;Max_cycle;Signal;HPM_P1;HPM_P2
2022/11/03 00:01:37;;;;;;;7.23;6.17;;;22.90;71.30;;;;;;4958804;28;20493;-77
2022/11/03 00:04:06;;;;;;;6.20;5.10;;;22.90;71.30;;;;;;4954943;28;20559;-77
2022/11/03 00:06:35;;;;;;;5.80;5.27;;;22.90;71.30;;;;;;4963170;28;20459;-77
2022/11/03 00:09:06;;;;;;;5.37;4.87;;;22.90;71.30;;;;;;4957183;28;20461;-76
2022/11/03 00:11:35;;;;;;;6.60;6.00;;;22.90;71.30;;;;;;4964824;28;20495;-77
2022/11/03 00:14:03;;;;;;;6.17;5.57;;;22.90;71.20;;;;;;4960457;28;20486;-77
2022/11/03 00:16:32;;;;;;;5.10;4.70;;;22.90;71.20;;;;;;4964821;28;20463;-76
2022/11/03 00:19:01;;;;;;;4.80;4.37;;;22.90;71.30;;;;;;4962163;28;20454;-77
2022/11/03 00:21:30;;;;;;;5.10;4.70;;;22.90;71.20;;;;;;4960545;28;20460;-77
2022/11/03 00:23:58;;;;;;;4.47;4.07;;;22.90;71.20;;;;;;4962896;28;20990;-77
2022/11/03 00:26:28;;;;;;;5.20;4.70;;;22.90;71.20;;;;;;4964078;28;20442;-76
2022/11/03 00:28:59;;;;;;;5.27;4.77;;;22.90;71.10;;;;;;4959509;28;20461;-77
2022/11/03 00:31:29;;;;;;;5.43;4.77;;;22.90;71.10;;;;;;4973166;28;20913;-77
2022/11/03 00:33:58;;;;;;;5.27;4.77;;;22.90;71.10;;;;;;4965617;28;20467;-77
2022/11/03 00:36:30;;;;;;;5.60;5.10;;;22.90;71.10;;;;;;4968879;28;20926;-76
2022/11/03 00:38:58;;;;;;;4.83;4.43;;;22.90;71.20;;;;;;4973601;28;20989;-77
2022/11/03 00:41:27;;;;;;;6.33;4.77;;;22.90;71.10;;;;;;4969515;28;20499;-77
2022/11/03 00:43:56;;;;;;;5.00;4.60;;;22.90;71.10;;;;;;4970745;28;20458;-77
2022/11/03 00:46:25;;;;;;;5.17;4.70;;;22.90;71.10;;;;;;4973413;28;20574;-77
2022/11/03 00:48:53;;;;;;;4.90;4.50;;;22.90;71.10;;;;;;4960276;28;20463;-76
2022/11/03 00:51:23;;;;;;;5.30;4.90;;;22.80;71.10;;;;;;4969575;28;21927;-77
2022/11/03 00:53:55;;;;;;;5.70;4.73;;;22.80;71.10;;;;;;4959673;28;20487;-77
2022/11/03 00:56:25;;;;;;;4.93;4.53;;;22.80;71.10;;;;;;4955824;28;20826;-76
2022/11/03 00:58:54;;;;;;;4.73;4.33;;;22.80;71.10;;;;;;4954203;28;20873;-76
2022/11/03 01:01:24;;;;;;;5.97;5.40;;;22.80;71.10;;;;;;4957511;28;20451;-77
2022/11/03 01:06:53;;;;;;;5.67;5.13;;;22.80;71.10;;;;;;4953977;28;20470;-78
2022/11/03 01:09:24;;;;;;;5.13;4.73;;;22.80;71.10;;;;;;4955056;28;20464;-77
2022/11/03 01:11:57;;;;;;;5.43;4.93;;;22.80;71.10;;;;;;4959769;28;20964;-77
2022/11/03 01:14:29;;;;;;;5.33;4.63;;;22.80;71.10;;;;;;4954808;28;20463;-78
2022/11/03 01:16:57;;;;;;;4.80;4.40;;;22.80;71.10;;;;;;4954911;28;20445;-78
2022/11/03 01:19:25;;;;;;;6.23;4.70;;;22.80;71.00;;;;;;4954745;28;20489;-77
2022/11/03 01:21:54;;;;;;;5.20;4.70;;;22.80;71.00;;;;;;4956465;28;20944;-76
2022/11/03 01:24:24;;;;;;;5.97;5.43;;;22.80;71.00;;;;;;4959929;28;20454;-77
2022/11/03 01:26:52;;;;;;;5.63;5.10;;;22.80;71.00;;;;;;4967481;28;20458;-78
2022/11/03 01:29:20;;;;;;;5.30;4.90;;;22.80;71.00;;;;;;4972381;28;21567;-77
2022/11/03 01:31:48;;;;;;;4.60;4.30;;;22.80;71.00;;;;;;4963744;28;20483;-77
2022/11/03 01:34:18;;;;;;;4.70;4.30;;;22.80;71.00;;;;;;4964127;28;20482;-77
2022/11/03 01:36:47;;;;;;;5.10;4.60;;;22.80;71.00;;;;;;4970588;28;20443;-74
2022/11/03 01:39:18;;;;;;;5.17;4.77;;;22.80;71.00;;;;;;4958502;28;20490;-77
2022/11/03 01:41:50;;;;;;;5.37;4.87;;;22.80;71.00;;;;;;4966150;28;20813;-77
2022/11/03 01:44:31;;;;;;;4.37;3.90;;;22.80;71.00;;;;;;4962267;28;20492;-76
2022/11/03 01:47:11;;;;;;;5.20;4.80;;;22.80;71.00;;;;;;4950087;28;20476;-77
2022/11/03 01:49:44;;;;;;;4.50;4.07;;;22.80;71.00;;;;;;4952674;28;20463;-78
2022/11/03 01:52:17;;;;;;;5.30;4.80;;;22.80;71.00;;;;;;4955202;28;20500;-77
2022/11/03 01:54:49;;;;;;;5.10;4.70;;;22.80;71.00;;;;;;4965927;28;20458;-77
2022/11/03 01:57:24;;;;;;;4.87;4.50;;;22.80;71.00;;;;;;4970015;28;20467;-78
2022/11/03 01:59:54;;;;;;;4.60;4.20;;;22.80;70.90;;;;;;4971014;28;20568;-77
2022/11/03 02:02:26;;;;;;;4.97;4.57;;;22.80;70.90;;;;;;4959067;28;20551;-77
2022/11/03 02:04:58;;;;;;;5.10;4.70;;;22.80;70.80;;;;;;4963468;28;20467;-77
2022/11/03 02:07:32;;;;;;;4.93;4.53;;;22.80;70.80;;;;;;4970763;28;20973;-77
2022/11/03 02:10:01;;;;;;;4.97;4.57;;;22.80;70.90;;;;;;4972913;28;20473;-77
2022/11/03 02:12:31;;;;;;;3.93;3.63;;;22.80;70.90;;;;;;4971448;28;20479;-78
2022/11/03 02:15:06;;;;;;;5.20;4.60;;;22.80;70.90;;;;;;4959671;28;20468;-77
2022/11/03 02:17:35;;;;;;;5.67;5.17;;;22.80;70.80;;;;;;4963881;28;20458;-77
2022/11/03 02:20:06;;;;;;;4.10;3.80;;;22.80;70.90;;;;;;4955645;28;20459;-77
2022/11/03 02:22:59;;;;;;;4.87;4.47;;;22.80;70.80;;;;;;4972365;28;20960;-77
2022/11/03 02:25:44;;;;;;;4.60;4.20;;;22.80;70.80;;;;;;4951295;28;20482;-78
2022/11/03 02:28:14;;;;;;;4.33;3.90;;;22.70;70.80;;;;;;4966147;28;20460;-77
2022/11/03 02:30:46;;;;;;;4.67;4.17;;;22.80;70.80;;;;;;4965041;28;20470;-78
2022/11/03 02:33:28;;;;;;;5.00;4.60;;;22.70;70.80;;;;;;4969554;28;20568;-77
2022/11/03 02:36:03;;;;;;;4.80;4.50;;;22.70;70.80;;;;;;4973011;28;20461;-78
2022/11/03 02:38:34;;;;;;;4.67;4.27;;;22.70;70.80;;;;;;4976483;28;20431;-77
2022/11/03 02:41:08;;;;;;;5.07;4.57;;;22.80;70.80;;;;;;4972725;28;20483;-77
2022/11/03 02:43:38;;;;;;;4.90;4.50;;;22.70;70.80;;;;;;4969870;28;20459;-77
2022/11/03 02:46:07;;;;;;;4.37;3.97;;;22.70;70.80;;;;;;4972965;28;20461;-77
2022/11/03 02:48:36;;;;;;;4.07;3.67;;;22.70;70.80;;;;;;4956904;28;20467;-77
2022/11/03 02:51:04;;;;;;;4.00;3.70;;;22.70;70.80;;;;;;4969081;28;20468;-76
2022/11/03 02:53:39;;;;;;;5.00;4.60;;;22.70;70.80;;;;;;4965033;28;20499;-78
2022/11/03 02:56:14;;;;;;;4.40;4.10;;;22.70;70.80;;;;;;4959612;28;20455;-78
2022/11/03 02:58:49;;;;;;;4.50;4.10;;;22.70;70.80;;;;;;4968649;28;20467;-77
2022/11/03 03:01:22;;;;;;;4.57;4.17;;;22.70;70.80;;;;;;4963472;28;20988;-77
2022/11/03 03:03:54;;;;;;;4.13;3.73;;;22.70;70.70;;;;;;4964163;28;20861;-77
2022/11/03 03:06:25;;;;;;;4.17;3.80;;;22.70;70.70;;;;;;4962693;28;20464;-77
2022/11/03 03:08:57;;;;;;;3.73;3.50;;;22.70;70.70;;;;;;4956977;28;20452;-75
2022/11/03 03:11:39;;;;;;;4.27;3.97;;;22.70;70.70;;;;;;4974591;28;20950;-78
2022/11/03 03:14:12;;;;;;;5.43;3.80;;;22.70;70.70;;;;;;4961498;28;20452;-78
2022/11/03 03:16:50;;;;;;;3.90;3.53;;;22.70;70.70;;;;;;4962500;28;20475;-77
2022/11/03 03:19:24;;;;;;;3.77;3.47;;;22.70;70.80;;;;;;4958349;28;20455;-78
2022/11/03 03:21:57;;;;;;;4.63;4.23;;;22.70;70.70;;;;;;4958012;28;20460;-78
2022/11/03 03:24:36;;;;;;;5.00;4.60;;;22.70;70.70;;;;;;4961077;28;20459;-78
2022/11/03 03:27:11;;;;;;;4.10;3.77;;;22.70;70.70;;;;;;4962807;28;20472;-76
2022/11/03 03:29:43;;;;;;;4.20;3.80;;;22.70;70.70;;;;;;4957916;28;20992;-77
2022/11/03 03:32:14;;;;;;;3.77;3.47;;;22.60;70.70;;;;;;4960349;28;20479;-77
2022/11/03 03:34:45;;;;;;;4.13;3.80;;;22.70;70.70;;;;;;4963080;28;20481;-77
2022/11/03 03:37:15;;;;;;;4.33;3.83;;;22.70;70.70;;;;;;4969060;28;20464;-77
2022/11/03 03:39:48;;;;;;;4.03;3.73;;;22.70;70.70;;;;;;4969885;28;20579;-77
2022/11/03 03:42:21;;;;;;;4.03;3.73;;;22.60;70.70;;;;;;4955706;28;20437;-77
2022/11/03 03:44:50;;;;;;;4.33;3.70;;;22.70;70.70;;;;;;4963892;28;20463;-78
2022/11/03 03:47:24;;;;;;;4.47;4.07;;;22.70;70.70;;;;;;4965243;28;20455;-78
2022/11/03 03:49:52;;;;;;;4.30;4.00;;;22.60;70.70;;;;;;4956144;28;20789;-77
2022/11/03 03:52:21;;;;;;;4.03;3.73;;;22.60;70.70;;;;;;4962158;28;20499;-77
2022/11/03 03:54:49;;;;;;;4.60;4.20;;;22.60;70.70;;;;;;4966386;28;20772;-78
2022/11/03 03:57:22;;;;;;;4.63;4.33;;;22.60;70.70;;;;;;4974765;28;20442;-77
2022/11/03 03:59:50;;;;;;;4.20;3.90;;;22.60;70.60;;;;;;4966648;28;20459;-78
2022/11/03 04:02:18;;;;;;;3.47;3.23;;;22.60;70.60;;;;;;4967046;28;20451;-77
2022/11/03 04:04:46;;;;;;;3.57;3.27;;;22.60;70.60;;;;;;4959977;28;20855;-77
2022/11/03 04:10:04;;;;;;;3.60;3.30;;;22.60;70.60;;;;;;4961887;28;20471;-77
2022/11/03 04:23:35;;;;;;;4.03;3.73;;;22.60;70.60;;;;;;4960410;28;20464;-77
2022/11/03 04:26:06;;;;;;;3.43;3.20;;;22.60;70.60;;;;;;4963545;28;20468;-78
2022/11/03 04:28:36;;;;;;;4.33;4.03;;;22.60;70.60;;;;;;4959186;28;20454;-78
2022/11/03 04:31:09;;;;;;;4.17;3.83;;;22.60;70.60;;;;;;4971604;28;20455;-78
2022/11/03 04:33:38;;;;;;;4.07;3.77;;;22.60;70.60;;;;;;4965440;28;20962;-78
2022/11/03 04:36:12;;;;;;;3.60;3.30;;;22.50;70.60;;;;;;4964280;28;20884;-77
2022/11/03 04:38:40;;;;;;;3.10;2.90;;;22.50;70.60;;;;;;4964015;28;20460;-77
2022/11/03 04:41:15;;;;;;;4.00;3.60;;;22.50;70.60;;;;;;4957407;28;20520;-77
2022/11/03 04:43:45;;;;;;;3.93;3.63;;;22.50;70.60;;;;;;4963462;28;20455;-77
2022/11/03 04:46:16;;;;;;;3.17;2.97;;;22.50;70.60;;;;;;4951084;28;20452;-74
2022/11/03 04:48:46;;;;;;;3.10;2.90;;;22.50;70.60;;;;;;4961516;28;20451;-78
2022/11/03 04:51:17;;;;;;;3.53;3.23;;;22.50;70.60;;;;;;4963634;28;20460;-77
2022/11/03 04:53:49;;;;;;;4.10;3.80;;;22.50;70.60;;;;;;4961726;28;20495;-75
2022/11/03 04:56:22;;;;;;;3.40;3.10;;;22.50;70.50;;;;;;4964564;28;20462;-78
2022/11/03 04:58:52;;;;;;;2.80;2.60;;;22.50;70.50;;;;;;4968727;28;20452;-77
2022/11/03 05:01:22;;;;;;;3.83;3.60;;;22.50;70.50;;;;;;4971001;28;21099;-76
2022/11/03 05:03:54;;;;;;;2.87;2.67;;;22.50;70.50;;;;;;4967832;28;20498;-77
2022/11/03 05:06:24;;;;;;;3.47;3.20;;;22.50;70.50;;;;;;4959198;28;20481;-77
2022/11/03 05:08:55;;;;;;;3.50;3.20;;;22.50;70.50;;;;;;4960896;28;20466;-77
2022/11/03 05:11:29;;;;;;;3.63;3.37;;;22.50;70.60;;;;;;4961849;28;20463;-77
2022/11/03 05:14:01;;;;;;;3.10;2.90;;;22.50;70.50;;;;;;4954499;28;20474;-77
2022/11/03 05:16:30;;;;;;;3.20;3.00;;;22.50;70.50;;;;;;4961136;28;20494;-76
2022/11/03 05:18:59;;;;;;;2.87;2.67;;;22.50;70.50;;;;;;4957545;28;20971;-76
2022/11/03 05:21:28;;;;;;;3.23;3.00;;;22.50;70.50;;;;;;4954310;28;20460;-76
2022/11/03 05:23:58;;;;;;;3.90;3.07;;;22.50;70.50;;;;;;4954584;28;20542;-76
2022/11/03 05:26:29;;;;;;;2.97;2.77;;;22.50;70.50;;;;;;4959847;28;20481;-76
2022/11/03 05:29:02;;;;;;;3.20;3.00;;;22.50;70.50;;;;;;4953807;28;20452;-76
2022/11/03 05:31:32;;;;;;;3.53;3.33;;;22.50;70.50;;;;;;4956770;28;20505;-76
2022/11/03 05:34:01;;;;;;;3.20;3.00;;;22.50;70.50;;;;;;4961273;28;20474;-76
2022/11/03 05:36:33;;;;;;;3.13;2.93;;;22.50;70.50;;;;;;4963839;28;20463;-76
2022/11/03 05:39:16;;;;;;;3.27;2.97;;;22.50;70.50;;;;;;4968130;28;20463;-77
2022/11/03 05:41:44;;;;;;;3.10;2.90;;;22.40;70.50;;;;;;4954375;28;20470;-77
2022/11/03 05:44:28;;;;;;;3.00;2.80;;;22.50;70.50;;;;;;4965446;28;20470;-75
2022/11/03 05:46:58;;;;;;;2.90;2.70;;;22.50;70.50;;;;;;4957268;28;20455;-76
2022/11/03 05:49:32;;;;;;;3.27;3.07;;;22.50;70.50;;;;;;4951749;28;20454;-77
2022/11/03 05:52:00;;;;;;;2.90;2.70;;;22.50;70.50;;;;;;4956977;28;21635;-77
2022/11/03 05:54:33;;;;;;;2.87;2.67;;;22.40;70.50;;;;;;4961689;28;20481;-75
2022/11/03 05:57:02;;;;;;;3.03;2.83;;;22.40;70.50;;;;;;4968433;28;20460;-77
2022/11/03 05:59:31;;;;;;;2.93;2.77;;;22.40;70.50;;;;;;4968554;28;20930;-76
2022/11/03 06:02:00;;;;;;;3.10;2.90;;;22.40;70.50;;;;;;4962883;28;20458;-77
2022/11/03 06:04:32;;;;;;;3.13;2.87;;;22.40;70.50;;;;;;4963127;28;20969;-77
2022/11/03 06:07:02;;;;;;;3.50;3.30;;;22.40;70.50;;;;;;4965998;28;20546;-77
2022/11/03 06:09:33;;;;;;;2.90;2.70;;;22.50;70.50;;;;;;4972396;28;20479;-75
2022/11/03 06:12:04;;;;;;;3.07;2.80;;;22.40;70.50;;;;;;4965252;28;20950;-77
2022/11/03 06:14:36;;;;;;;2.80;2.60;;;22.40;70.50;;;;;;4958414;28;20480;-77
2022/11/03 06:17:06;;;;;;;2.90;2.70;;;22.40;70.40;;;;;;4962356;28;20463;-77
2022/11/03 06:19:38;;;;;;;2.73;2.57;;;22.40;70.40;;;;;;4965721;28;20530;-77
2022/11/03 06:22:14;;;;;;;2.70;2.60;;;22.40;70.40;;;;;;4972002;28;20470;-79
2022/11/03 06:24:42;;;;;;;2.83;2.63;;;22.40;70.40;;;;;;4957598;28;20470;-78
2022/11/03 06:27:14;;;;;;;2.30;2.20;;;22.40;70.40;;;;;;4959195;28;20463;-78
2022/11/03 06:29:48;;;;;;;2.30;2.20;;;22.40;70.40;;;;;;4959864;28;20494;-79
2022/11/03 06:32:17;;;;;;;2.40;2.20;;;22.40;70.40;;;;;;4966381;28;20948;-78
2022/11/03 06:34:47;;;;;;;2.80;2.60;;;22.40;70.40;;;;;;4960152;28;20483;-77
2022/11/03 06:37:20;;;;;;;2.93;2.73;;;22.40;70.40;;;;;;4965297;28;20462;-76
2022/11/03 06:39:49;;;;;;;2.53;2.40;;;22.40;70.40;;;;;;4962206;28;20490;-76
2022/11/03 06:42:21;;;;;;;2.67;2.47;;;22.40;70.40;;;;;;4962646;28;20459;-78
2022/11/03 06:44:53;;;;;;;2.70;2.57;;;22.40;70.40;;;;;;4957243;28;20467;-79
2022/11/03 06:47:23;;;;;;;2.70;2.50;;;22.40;70.40;;;;;;4961564;28;20462;-77
2022/11/03 06:49:53;;;;;;;3.93;3.20;;;22.40;70.40;;;;;;4966660;28;20455;-78
2022/11/03 06:52:25;;;;;;;3.07;2.77;;;22.40;70.80;;;;;;4961484;28;20486;-77
2022/11/03 06:55:21;;;;;;;4.37;3.33;;;22.40;71.40;;;;;;4961818;28;20482;-77
2022/11/03 06:57:54;;;;;;;6.07;3.40;;;22.40;71.70;;;;;;4957668;28;20457;-75
2022/11/03 07:00:25;;;;;;;4.70;3.23;;;22.40;71.60;;;;;;4961542;28;20455;-76
2022/11/03 07:03:09;;;;;;;3.30;3.00;;;22.40;71.60;;;;;;4957897;28;20456;-77
2022/11/03 07:05:39;;;;;;;3.90;2.50;;;22.40;71.40;;;;;;4960344;28;20463;-76
2022/11/03 07:08:19;;;;;;;3.23;2.87;;;22.40;71.20;;;;;;4964395;28;20484;-78
2022/11/03 07:10:48;;;;;;;3.60;2.73;;;22.40;71.10;;;;;;4968527;28;20458;-77
2022/11/03 07:13:20;;;;;;;3.30;3.00;;;22.40;71.10;;;;;;4965793;28;20462;-78
2022/11/03 07:15:49;;;;;;;3.50;3.20;;;22.40;70.90;;;;;;4960666;28;20486;-76
2022/11/03 07:18:22;;;;;;;5.80;3.00;;;22.40;71.00;;;;;;4963054;28;20458;-78
2022/11/03 07:20:51;;;;;;;3.03;2.83;;;22.40;70.90;;;;;;4956879;28;20542;-78
2022/11/03 07:23:26;;;;;;;2.80;2.60;;;22.40;71.00;;;;;;4960291;28;20881;-78
2022/11/03 07:25:58;;;;;;;3.60;3.30;;;22.40;70.90;;;;;;4958749;28;20487;-78
2022/11/03 07:28:31;;;;;;;3.23;2.93;;;22.40;70.90;;;;;;4957940;28;20464;-76
2022/11/03 07:31:06;;;;;;;3.17;2.87;;;22.40;70.70;;;;;;4957571;28;20814;-78
2022/11/03 07:33:39;;;;;;;3.93;3.50;;;22.40;70.60;;;;;;4962521;28;20486;-77
2022/11/03 07:36:12;;;;;;;4.13;3.67;;;22.40;70.50;;;;;;4964554;28;20455;-77
2022/11/03 07:38:44;;;;;;;4.03;3.73;;;22.40;70.40;;;;;;4957313;28;20550;-77
2022/11/03 07:41:18;;;;;;;3.77;3.50;;;22.40;70.40;;;;;;4955602;28;20502;-78
2022/11/03 07:43:51;;;;;;;3.97;3.57;;;22.40;70.40;;;;;;4956693;28;20538;-76
2022/11/03 07:46:22;;;;;;;4.33;3.73;;;22.40;70.40;;;;;;4957263;28;20559;-78
2022/11/03 07:48:53;;;;;;;4.90;4.43;;;22.40;70.40;;;;;;4956776;28;20458;-77
2022/11/03 07:51:24;;;;;;;4.23;3.63;;;22.40;70.40;;;;;;4955799;28;20452;-79
2022/11/03 07:53:56;;;;;;;5.40;4.13;;;22.40;70.40;;;;;;4957650;28;20586;-79
2022/11/03 07:56:27;;;;;;;4.57;4.13;;;22.40;70.40;;;;;;4956656;28;20569;-78
2022/11/03 07:59:00;;;;;;;3.77;3.47;;;22.40;70.40;;;;;;4957136;28;20456;-79
2022/11/03 08:01:33;;;;;;;4.53;4.13;;;22.40;70.30;;;;;;4958509;28;20450;-79
2022/11/03 08:04:04;;;;;;;4.33;3.13;;;22.40;70.40;;;;;;4954654;28;20468;-79
2022/11/03 08:06:33;;;;;;;5.00;4.57;;;22.40;70.20;;;;;;4959945;28;20479;-79
2022/11/03 08:09:01;;;;;;;3.93;3.63;;;22.40;70.20;;;;;;4960263;28;20448;-79
2022/11/03 08:11:29;;;;;;;4.50;4.10;;;22.40;70.30;;;;;;4958646;28;20478;-79
2022/11/03 08:13:57;;;;;;;3.83;3.43;;;22.40;70.20;;;;;;4961767;28;20898;-77
2022/11/03 08:16:26;;;;;;;6.83;4.60;;;22.40;70.30;;;;;;4954809;28;20466;-77
2022/11/03 08:18:55;;;;;;;7.40;4.80;;;22.40;70.50;;;;;;4958671;28;20881;-77
2022/11/03 08:21:23;;;;;;;5.83;4.20;;;22.40;71.10;;;;;;4958455;28;20459;-79
2022/11/03 08:23:52;;;;;;;5.90;4.90;;;22.40;71.30;;;;;;4964018;28;20439;-78
2022/11/03 08:26:20;;;;;;;6.13;3.97;;;22.40;71.80;;;;;;4959793;28;20463;-79
2022/11/03 08:28:48;;;;;;;9.87;5.20;;;22.40;71.80;;;;;;4966473;28;20458;-80
2022/11/03 08:31:16;;;;;;;6.33;4.70;;;22.50;71.80;;;;;;4962114;28;20461;-77
2022/11/03 08:33:45;;;;;;;5.63;4.53;;;22.50;71.80;;;;;;4955690;28;20570;-76
2022/11/03 08:36:14;;;;;;;6.30;4.27;;;22.50;71.80;;;;;;4964401;28;20482;-77
2022/11/03 08:38:43;;;;;;;4.90;4.40;;;22.50;71.70;;;;;;4965342;28;20444;-78
2022/11/03 08:41:11;;;;;;;7.33;4.83;;;22.60;71.70;;;;;;4963056;28;20480;-76
2022/11/03 08:43:39;;;;;;;6.07;4.30;;;22.60;71.60;;;;;;4970992;28;20450;-84
2022/11/03 08:46:07;;;;;;;4.60;3.90;;;22.60;71.60;;;;;;4958910;28;20791;-80
2022/11/03 08:48:45;;;;;;;5.67;4.70;;;22.70;71.70;;;;;;4965198;28;20513;-78
2022/11/03 08:51:15;;;;;;;5.70;4.80;;;22.70;71.70;;;;;;4962255;28;20460;-80
2022/11/03 08:53:45;;;;;;;6.50;4.67;;;22.70;71.80;;;;;;4957041;28;20494;-80
2022/11/03 08:56:13;;;;;;;11.70;4.40;;;22.70;71.70;;;;;;4954395;28;21201;-80
2022/11/03 08:58:46;;;;;;;6.20;5.07;;;22.70;71.70;;;;;;4960045;28;20541;-75
2022/11/03 09:01:14;;;;;;;5.30;4.80;;;22.70;71.70;;;;;;4961012;28;20453;-78
2022/11/03 09:03:42;;;;;;;4.70;4.13;;;22.70;71.70;;;;;;4952752;28;20515;-80
2022/11/03 09:06:11;;;;;;;4.70;4.30;;;22.80;71.70;;;;;;4953921;28;20464;-80
2022/11/03 09:08:40;;;;;;;8.40;4.90;;;22.80;71.30;;;;;;4954507;28;20480;-78
2022/11/03 09:11:28;;;;;;;5.80;3.93;;;22.80;71.20;;;;;;4951675;28;20472;-79
2022/11/03 09:13:57;;;;;;;8.40;5.23;;;22.80;71.30;;;;;;4951587;28;20454;-78
2022/11/03 09:16:25;;;;;;;5.87;4.70;;;22.80;71.40;;;;;;4954633;28;21013;-84
2022/11/03 09:18:53;;;;;;;8.00;4.47;;;22.80;71.40;;;;;;4957132;28;20457;-83
2022/11/03 09:21:24;;;;;;;6.07;4.50;;;22.80;71.40;;;;;;4955924;28;20462;-80
2022/11/03 09:23:55;;;;;;;7.33;4.17;;;22.90;71.50;;;;;;4953750;28;20472;-80
2022/11/03 09:26:23;;;;;;;6.00;5.27;;;22.90;71.50;;;;;;4954248;28;20455;-86
2022/11/03 09:28:51;;;;;;;5.03;4.60;;;22.90;71.50;;;;;;4953622;28;20463;-84
2022/11/03 09:31:20;;;;;;;6.83;4.80;;;22.90;71.50;;;;;;4955784;28;20529;-83
2022/11/03 09:33:48;;;;;;;7.23;4.70;;;22.90;71.50;;;;;;4955904;28;20457;-81
2022/11/03 09:36:16;;;;;;;6.23;4.97;;;22.90;71.50;;;;;;4953299;28;20465;-78
2022/11/03 09:38:44;;;;;;;5.23;4.60;;;22.90;71.50;;;;;;4955408;28;20462;-83
2022/11/03 09:41:16;;;;;;;6.00;4.80;;;23.00;71.00;;;;;;4957459;28;20486;-83
2022/11/03 09:43:57;;;;;;;5.30;4.63;;;23.00;71.00;;;;;;4963607;28;20458;-84
2022/11/03 09:46:28;;;;;;;8.73;4.27;;;23.00;71.10;;;;;;4957817;28;20955;-84
2022/11/03 09:48:56;;;;;;;7.93;4.40;;;23.00;71.10;;;;;;4953234;28;20450;-85
2022/11/03 09:51:27;;;;;;;7.53;4.60;;;23.00;71.10;;;;;;4954322;28;20458;-80
2022/11/03 09:53:57;;;;;;;4.73;4.33;;;23.00;71.20;;;;;;4955829;28;20909;-77
2022/11/03 09:56:27;;;;;;;7.43;4.63;;;23.00;71.20;;;;;;4955516;28;20487;-80
2022/11/03 09:58:55;;;;;;;5.73;4.20;;;23.10;71.20;;;;;;4955770;28;20483;-80
2022/11/03 10:01:24;;;;;;;5.77;4.30;;;23.10;71.20;;;;;;4954458;28;20459;-82
2022/11/03 10:03:52;;;;;;;5.90;4.20;;;23.10;71.20;;;;;;4966795;28;20457;-81
2022/11/03 10:06:21;;;;;;;5.13;4.37;;;23.10;71.20;;;;;;4957344;28;20455;-80
2022/11/03 10:08:49;;;;;;;4.60;4.30;;;23.10;71.20;;;;;;4953112;28;20470;-80
2022/11/03 10:11:18;;;;;;;5.10;4.20;;;23.10;71.10;;;;;;4958813;28;20450;-78
2022/11/03 10:13:51;;;;;;;4.53;4.20;;;23.10;71.20;;;;;;4957965;28;20457;-81
2022/11/03 10:16:23;;;;;;;4.73;4.30;;;23.10;71.10;;;;;;4959576;28;20599;-81
2022/11/03 10:18:52;;;;;;;5.13;4.13;;;23.10;71.10;;;;;;4960812;28;20480;-80
2022/11/03 10:21:25;;;;;;;5.47;4.97;;;23.10;71.10;;;;;;4956154;28;20457;-79
2022/11/03 10:23:53;;;;;;;4.07;3.77;;;23.10;71.10;;;;;;4963630;28;20464;-80
2022/11/03 10:26:22;;;;;;;3.97;3.67;;;23.10;71.10;;;;;;4960891;28;20467;-79
2022/11/03 10:29:03;;;;;;;4.00;3.70;;;23.10;71.20;;;;;;4954006;28;20476;-79
2022/11/03 10:31:34;;;;;;;4.20;3.83;;;23.10;71.20;;;;;;4961946;28;20541;-79
2022/11/03 10:34:02;;;;;;;7.00;3.93;;;23.20;71.10;;;;;;4952714;28;20444;-79
2022/11/03 10:36:32;;;;;;;4.53;3.90;;;23.20;71.10;;;;;;4956614;28;20487;-80
2022/11/03 10:39:17;;;;;;;6.20;5.00;;;23.20;71.20;;;;;;4953380;28;20938;-79
2022/11/03 10:41:56;;;;;;;5.07;3.90;;;23.20;71.10;;;;;;4952605;28;20461;-79
2022/11/03 10:44:27;;;;;;;4.63;4.23;;;23.20;71.10;;;;;;4957374;28;20455;-77
2022/11/03 10:46:57;;;;;;;4.43;3.73;;;23.20;71.20;;;;;;4956746;28;20509;-79
2022/11/03 10:49:28;;;;;;;5.10;3.90;;;23.20;71.20;;;;;;4964047;28;20449;-81
2022/11/03 10:52:06;;;;;;;4.20;3.80;;;23.20;71.30;;;;;;4965847;28;20487;-80
2022/11/03 10:54:36;;;;;;;4.30;3.90;;;23.20;71.30;;;;;;4957672;28;20461;-78
2022/11/03 10:57:05;;;;;;;4.23;3.83;;;23.20;71.20;;;;;;4959042;28;20583;-76
2022/11/03 10:59:37;;;;;;;4.27;3.70;;;23.20;71.20;;;;;;4955690;28;20450;-76
2022/11/03 11:02:15;;;;;;;6.80;3.80;;;23.20;71.20;;;;;;4957823;28;20479;-77
2022/11/03 11:04:43;;;;;;;4.70;3.63;;;23.20;71.20;;;;;;4959656;28;20469;-77
2022/11/03 11:07:22;;;;;;;3.70;3.40;;;23.20;71.20;;;;;;4960682;28;20456;-76
2022/11/03 11:09:50;;;;;;;5.13;4.63;;;23.30;71.20;;;;;;4962592;28;21249;-75
2022/11/03 11:12:21;;;;;;;4.20;3.80;;;23.30;70.90;;;;;;4957057;28;20461;-77
2022/11/03 11:14:56;;;;;;;4.93;3.27;;;23.30;71.00;;;;;;4964822;28;20456;-77
2022/11/03 11:17:45;;;;;;;4.07;3.63;;;23.30;71.10;;;;;;4954621;28;20497;-77
2022/11/03 11:20:46;;;;;;;4.60;3.60;;;23.30;71.10;;;;;;4958490;28;21004;-77
2022/11/03 11:23:51;;;;;;;3.50;3.20;;;23.20;70.90;;;;;;4958547;28;20952;-76
2022/11/03 11:26:41;;;;;;;4.93;4.53;;;23.20;70.70;;;;;;4959486;28;20874;-76
2022/11/03 11:29:45;;;;;;;4.57;4.10;;;23.20;70.40;;;;;;4958835;28;20455;-75
2022/11/03 11:32:55;;;;;;;5.00;3.43;;;23.20;70.40;;;;;;4953829;28;20462;-77
2022/11/03 11:36:08;;;;;;;3.80;3.50;;;23.20;70.50;;;;;;4938338;28;20472;-77
2022/11/03 11:39:12;;;;;;;4.17;3.87;;;23.10;70.50;;;;;;4956225;28;20459;-77
2022/11/03 11:42:06;;;;;;;4.00;3.60;;;23.10;70.40;;;;;;4955257;29;20456;-77
2022/11/03 11:44:53;;;;;;;3.70;3.40;;;23.10;70.10;;;;;;4953358;28;20572;-76
2022/11/03 11:47:33;;;;;;;5.33;3.80;;;23.10;69.60;;;;;;4955500;28;20797;-78
2022/11/03 11:50:32;;;;;;;3.90;3.60;;;23.10;70.50;;;;;;4958322;28;21022;-78
2022/11/03 11:53:20;;;;;;;3.80;3.43;;;23.00;70.50;;;;;;4956796;28;20535;-78
2022/11/03 11:55:53;;;;;;;4.50;4.10;;;23.00;69.80;;;;;;4962365;28;20940;-78
2022/11/03 11:58:31;;;;;;;3.43;3.13;;;23.00;69.70;;;;;;4963780;28;20823;-78
2022/11/03 12:01:01;;;;;;;6.77;3.23;;;23.00;69.50;;;;;;4957355;28;20461;-76
2022/11/03 12:03:33;;;;;;;3.73;3.43;;;22.90;70.20;;;;;;4958164;28;20951;-76
2022/11/03 12:06:02;;;;;;;3.70;3.40;;;22.90;70.10;;;;;;4959937;28;20884;-77
2022/11/03 12:08:31;;;;;;;4.03;3.47;;;22.90;70.10;;;;;;4958876;28;20457;-76
2022/11/03 12:11:03;;;;;;;3.53;3.23;;;22.90;69.90;;;;;;4956359;28;20470;-77
2022/11/03 12:13:36;;;;;;;3.47;3.27;;;22.90;70.10;;;;;;4961183;28;20459;-74
2022/11/03 12:16:05;;;;;;;3.50;3.20;;;22.90;70.20;;;;;;4965656;28;20456;-73
2022/11/03 12:18:35;;;;;;;3.93;3.37;;;22.90;70.50;;;;;;4956631;28;20566;-75
2022/11/03 12:21:12;;;;;;;3.23;2.93;;;22.80;70.40;;;;;;4968036;28;20965;-76
2022/11/03 12:23:42;;;;;;;3.23;3.03;;;22.80;70.20;;;;;;4959892;28;20462;-75
2022/11/03 12:26:38;;;;;;;4.93;3.50;;;22.80;70.30;;;;;;4956086;28;20478;-76
2022/11/03 12:29:06;;;;;;;4.00;3.30;;;22.80;70.30;;;;;;4956938;28;20468;-74
2022/11/03 12:31:34;;;;;;;4.00;3.70;;;22.80;70.10;;;;;;4960434;28;20535;-76
2022/11/03 12:34:04;;;;;;;3.40;2.90;;;22.80;69.90;;;;;;4961616;28;20472;-77
2022/11/03 12:36:32;;;;;;;3.50;3.20;;;22.80;70.00;;;;;;4957802;28;20475;-77
2022/11/03 12:39:00;;;;;;;3.70;3.40;;;22.80;69.70;;;;;;4960600;28;20455;-78
2022/11/03 12:41:29;;;;;;;3.77;3.47;;;22.80;70.00;;;;;;4956369;28;20474;-78
2022/11/03 12:43:57;;;;;;;3.90;3.60;;;22.80;70.00;;;;;;4957623;28;20452;-78
2022/11/03 12:46:26;;;;;;;4.93;3.50;;;22.80;70.10;;;;;;4953337;28;20824;-77
2022/11/03 12:48:54;;;;;;;3.30;3.07;;;22.80;70.10;;;;;;4965726;28;20451;-78
2022/11/03 12:51:24;;;;;;;4.77;3.50;;;22.80;70.10;;;;;;4957519;28;20485;-74
2022/11/03 12:53:52;;;;;;;3.93;3.50;;;22.80;69.60;;;;;;4966186;28;20581;-72
2022/11/03 12:56:20;;;;;;;4.50;3.03;;;22.80;68.70;;;;;;4955365;28;20834;-72
2022/11/03 12:58:49;;;;;;;5.07;3.20;;;22.80;68.20;;;;;;4951856;28;20441;-72
2022/11/03 13:01:18;;;;;;;4.13;3.23;;;22.80;68.30;;;;;;4953125;28;20444;-72
2022/11/03 13:03:46;;;;;;;3.50;3.10;;;22.80;67.90;;;;;;4953381;28;20985;-73
2022/11/03 13:06:15;;;;;;;4.90;3.27;;;22.80;67.60;;;;;;4953534;28;20519;-73
2022/11/03 13:08:43;;;;;;;7.43;3.30;;;22.80;67.50;;;;;;4961408;28;20452;-69
2022/11/03 13:14:02;;;;;;;3.60;3.30;;;22.80;67.30;;;;;;4961396;28;20460;-74
2022/11/03 13:16:31;;;;;;;4.93;3.43;;;22.70;66.80;;;;;;4953395;28;20531;-71
2022/11/03 13:18:59;;;;;;;4.07;3.70;;;22.70;67.20;;;;;;4963544;28;20471;-71
2022/11/03 13:21:27;;;;;;;5.30;3.70;;;22.70;67.00;;;;;;4972973;28;20537;-70
2022/11/03 13:23:55;;;;;;;3.33;3.13;;;22.70;66.80;;;;;;4969396;28;20453;-73
2022/11/03 13:26:23;;;;;;;6.17;3.30;;;22.70;66.70;;;;;;4959955;28;21190;-71
2022/11/03 13:28:52;;;;;;;4.07;3.67;;;22.70;66.70;;;;;;4955447;28;20434;-71
2022/11/03 13:31:21;;;;;;;4.93;3.47;;;22.70;66.50;;;;;;4961045;28;20474;-70
2022/11/03 13:33:50;;;;;;;4.37;3.83;;;22.70;66.50;;;;;;4959986;28;20555;-83